MTN324 KSEA-KPSC
Flight info
| Callsign | MTN324 |
|---|---|
| Flight time | 0h 32m |
| Altitude | 21000 |
| Route | MONTN2 SEA VAMPS BANDR FEBUS NIALS PSC |
| Aircraft | E75L/M-SDE3GILORVW/S |
Departure
| Time | 2026-05-05 04:31 |
|---|---|
| Airport | Seattle–Tacoma International Airport (KSEA) |
Arrival
| Time | 2026-05-05 05:04 |
|---|---|
| Airport | Tri Cities Airport (KPSC) |
| Time | Latitude | Longitude | Altitude | Speed | Heading |
|---|---|---|---|---|---|
| 2026-05-05 04:12 | 47.44841 | -122.30077 | 407 ft | 0 kts | 248° |
| 2026-05-05 04:22 | 47.44841 | -122.30076 | 407 ft | 1 kts | 248° |
| 2026-05-05 04:22 | 47.44850 | -122.30045 | 405 ft | 4 kts | 241° |
| 2026-05-05 04:23 | 47.44867 | -122.30016 | 407 ft | 4 kts | 205° |
| 2026-05-05 04:23 | 47.44881 | -122.30016 | 403 ft | 2 kts | 151° |
| 2026-05-05 04:25 | 47.44876 | -122.30011 | 403 ft | 2 kts | 152° |
| 2026-05-05 04:25 | 47.44846 | -122.29992 | 403 ft | 8 kts | 163° |
| 2026-05-05 04:26 | 47.44779 | -122.29994 | 406 ft | 11 kts | 198° |
| 2026-05-05 04:26 | 47.44729 | -122.30033 | 405 ft | 0 kts | 217° |
| 2026-05-05 04:26 | 47.44705 | -122.30067 | 402 ft | 9 kts | 229° |
| 2026-05-05 04:27 | 47.44678 | -122.30177 | 403 ft | 14 kts | 271° |
| 2026-05-05 04:27 | 47.44723 | -122.30307 | 404 ft | 15 kts | 310° |
| 2026-05-05 04:27 | 47.44789 | -122.30424 | 406 ft | 12 kts | 309° |
| 2026-05-05 04:27 | 47.44806 | -122.30548 | 405 ft | 13 kts | 272° |
| 2026-05-05 04:28 | 47.44868 | -122.30628 | 405 ft | 14 kts | 358° |
| 2026-05-05 04:28 | 47.44974 | -122.30627 | 408 ft | 17 kts | 0° |
| 2026-05-05 04:28 | 47.45108 | -122.30626 | 410 ft | 21 kts | 0° |
| 2026-05-05 04:28 | 47.45251 | -122.30625 | 414 ft | 20 kts | 0° |
| 2026-05-05 04:29 | 47.45387 | -122.30624 | 421 ft | 19 kts | 0° |
| 2026-05-05 04:29 | 47.45521 | -122.30623 | 423 ft | 20 kts | 0° |
| 2026-05-05 04:29 | 47.45663 | -122.30621 | 420 ft | 21 kts | 0° |
| 2026-05-05 04:29 | 47.45812 | -122.30620 | 432 ft | 22 kts | 360° |
| 2026-05-05 04:30 | 47.45971 | -122.30618 | 427 ft | 23 kts | 1° |
| 2026-05-05 04:30 | 47.46134 | -122.30613 | 435 ft | 25 kts | 359° |
| 2026-05-05 04:30 | 47.46299 | -122.30616 | 433 ft | 21 kts | 359° |
| 2026-05-05 04:30 | 47.46376 | -122.30697 | 440 ft | 14 kts | 262° |
| 2026-05-05 04:31 | 47.46321 | -122.30776 | 429 ft | 12 kts | 186° |
| 2026-05-05 04:31 | 47.46095 | -122.30781 | 431 ft | 72 kts | 180° |
| 2026-05-05 04:31 | 47.45319 | -122.30787 | 434 ft | 149 kts | 181° |
| 2026-05-05 04:31 | 47.44184 | -122.30748 | 1076 ft | 174 kts | 179° |
| 2026-05-05 04:32 | 47.42982 | -122.30733 | 1746 ft | 179 kts | 183° |
| 2026-05-05 04:32 | 47.41669 | -122.30842 | 2508 ft | 200 kts | 183° |
| 2026-05-05 04:32 | 47.40206 | -122.30941 | 3340 ft | 223 kts | 181° |
| 2026-05-05 04:32 | 47.38538 | -122.31003 | 4072 ft | 254 kts | 181° |
| 2026-05-05 04:33 | 47.36678 | -122.31045 | 4943 ft | 277 kts | 181° |
| 2026-05-05 04:33 | 47.34716 | -122.31029 | 6071 ft | 286 kts | 174° |
| 2026-05-05 04:33 | 47.32844 | -122.30065 | 7226 ft | 289 kts | 143° |
| 2026-05-05 04:33 | 47.31559 | -122.27850 | 8417 ft | 286 kts | 115° |
| 2026-05-05 04:34 | 47.31038 | -122.25051 | 9563 ft | 286 kts | 92° |
| 2026-05-05 04:34 | 47.31256 | -122.22131 | 10470 ft | 294 kts | 76° |
| 2026-05-05 04:34 | 47.31807 | -122.19138 | 11147 ft | 309 kts | 72° |
| 2026-05-05 04:34 | 47.32437 | -122.16028 | 11876 ft | 324 kts | 72° |
| 2026-05-05 04:35 | 47.33098 | -122.12815 | 12594 ft | 339 kts | 71° |
| 2026-05-05 04:35 | 47.33811 | -122.09440 | 13444 ft | 349 kts | 70° |
| 2026-05-05 04:35 | 47.34560 | -122.06018 | 14488 ft | 351 kts | 70° |
| 2026-05-05 04:35 | 47.35336 | -122.02616 | 15725 ft | 348 kts | 69° |
| 2026-05-05 04:36 | 47.36072 | -121.99221 | 16821 ft | 352 kts | 75° |
| 2026-05-05 04:36 | 47.36194 | -121.95497 | 17193 ft | 379 kts | 98° |
| 2026-05-05 04:36 | 47.35462 | -121.91759 | 18303 ft | 373 kts | 106° |
| 2026-05-05 04:36 | 47.34663 | -121.88178 | 19554 ft | 366 kts | 105° |
| 2026-05-05 04:37 | 47.33877 | -121.84555 | 20066 ft | 380 kts | 105° |
| 2026-05-05 04:37 | 47.33017 | -121.80720 | 20092 ft | 407 kts | 105° |
| 2026-05-05 04:37 | 47.32095 | -121.76674 | 20452 ft | 421 kts | 105° |
| 2026-05-05 04:37 | 47.31185 | -121.72619 | 21239 ft | 410 kts | 104° |
| 2026-05-05 04:38 | 47.30303 | -121.68740 | 21198 ft | 389 kts | 105° |
| 2026-05-05 04:38 | 47.29431 | -121.64939 | 21217 ft | 402 kts | 105° |
| 2026-05-05 04:38 | 47.28531 | -121.61004 | 21244 ft | 407 kts | 105° |
| 2026-05-05 04:38 | 47.27624 | -121.57027 | 21067 ft | 412 kts | 105° |
| 2026-05-05 04:39 | 47.26722 | -121.53042 | 20914 ft | 410 kts | 105° |
| 2026-05-05 04:39 | 47.25808 | -121.49068 | 20919 ft | 410 kts | 105° |
| 2026-05-05 04:39 | 47.24933 | -121.45073 | 20907 ft | 410 kts | 104° |
| 2026-05-05 04:39 | 47.24097 | -121.41113 | 20900 ft | 411 kts | 104° |
| 2026-05-05 04:40 | 47.23243 | -121.37102 | 20908 ft | 411 kts | 104° |
| 2026-05-05 04:40 | 47.22386 | -121.33085 | 20895 ft | 411 kts | 104° |
| 2026-05-05 04:40 | 47.21526 | -121.29077 | 20899 ft | 411 kts | 104° |
| 2026-05-05 04:40 | 47.20665 | -121.25067 | 20900 ft | 411 kts | 104° |
| 2026-05-05 04:41 | 47.19800 | -121.21052 | 20895 ft | 411 kts | 104° |
| 2026-05-05 04:41 | 47.18935 | -121.17047 | 20892 ft | 411 kts | 104° |
| 2026-05-05 04:41 | 47.18065 | -121.13039 | 20885 ft | 411 kts | 104° |
| 2026-05-05 04:41 | 47.17198 | -121.09032 | 20882 ft | 411 kts | 104° |
| 2026-05-05 04:42 | 47.16326 | -121.05029 | 20875 ft | 411 kts | 105° |
| 2026-05-05 04:42 | 47.15454 | -121.01024 | 20871 ft | 411 kts | 105° |
| 2026-05-05 04:42 | 47.14580 | -120.97017 | 20868 ft | 412 kts | 105° |
| 2026-05-05 04:42 | 47.13706 | -120.93017 | 20855 ft | 412 kts | 105° |
| 2026-05-05 04:43 | 47.12828 | -120.89010 | 20852 ft | 412 kts | 105° |
| 2026-05-05 04:43 | 47.11950 | -120.85016 | 20849 ft | 411 kts | 105° |
| 2026-05-05 04:43 | 47.11072 | -120.81018 | 20850 ft | 412 kts | 105° |
| 2026-05-05 04:43 | 47.10202 | -120.77074 | 20847 ft | 412 kts | 105° |
| 2026-05-05 04:44 | 47.09308 | -120.73027 | 20839 ft | 412 kts | 105° |
| 2026-05-05 04:44 | 47.08435 | -120.69083 | 20839 ft | 412 kts | 105° |
| 2026-05-05 04:44 | 47.07551 | -120.65093 | 20831 ft | 412 kts | 105° |
| 2026-05-05 04:44 | 47.06664 | -120.61097 | 20834 ft | 411 kts | 105° |
| 2026-05-05 04:45 | 47.05777 | -120.57109 | 20846 ft | 412 kts | 105° |
| 2026-05-05 04:45 | 47.04886 | -120.53112 | 20858 ft | 412 kts | 105° |
| 2026-05-05 04:45 | 47.03995 | -120.49123 | 20850 ft | 412 kts | 105° |
| 2026-05-05 04:45 | 47.03102 | -120.45133 | 20849 ft | 411 kts | 105° |
| 2026-05-05 04:46 | 47.02209 | -120.41148 | 20854 ft | 411 kts | 105° |
| 2026-05-05 04:46 | 47.01315 | -120.37169 | 20850 ft | 411 kts | 105° |
| 2026-05-05 04:46 | 47.00421 | -120.33187 | 20847 ft | 411 kts | 105° |
| 2026-05-05 04:46 | 46.99521 | -120.29195 | 20838 ft | 411 kts | 105° |
| 2026-05-05 04:47 | 46.98625 | -120.25214 | 20829 ft | 411 kts | 105° |
| 2026-05-05 04:47 | 46.97728 | -120.21250 | 20809 ft | 406 kts | 106° |
| 2026-05-05 04:47 | 46.96846 | -120.17366 | 20802 ft | 399 kts | 106° |
| 2026-05-05 04:47 | 46.96267 | -120.14812 | 20812 ft | 399 kts | 105° |
| 2026-05-05 04:48 | 46.95395 | -120.10957 | 20801 ft | 399 kts | 106° |
| 2026-05-05 04:48 | 46.94516 | -120.07106 | 20793 ft | 399 kts | 106° |
| 2026-05-05 04:48 | 46.93355 | -120.02007 | 20788 ft | 398 kts | 106° |
| 2026-05-05 04:48 | 46.92478 | -119.98160 | 20782 ft | 399 kts | 106° |
| 2026-05-05 04:49 | 46.91598 | -119.94318 | 20771 ft | 399 kts | 106° |
| 2026-05-05 04:49 | 46.90708 | -119.90480 | 20768 ft | 399 kts | 108° |
| 2026-05-05 04:49 | 46.89875 | -119.88012 | 20770 ft | 403 kts | 120° |
| 2026-05-05 04:49 | 46.88019 | -119.84938 | 20741 ft | 407 kts | 136° |
| 2026-05-05 04:50 | 46.85880 | -119.82276 | 20342 ft | 409 kts | 139° |
| 2026-05-05 04:50 | 46.83686 | -119.79676 | 20002 ft | 404 kts | 139° |
| 2026-05-05 04:50 | 46.81511 | -119.77071 | 19399 ft | 402 kts | 139° |
| 2026-05-05 04:50 | 46.79361 | -119.74484 | 18832 ft | 397 kts | 139° |
| 2026-05-05 04:51 | 46.77242 | -119.71918 | 18285 ft | 393 kts | 139° |
| 2026-05-05 04:51 | 46.75149 | -119.69378 | 17834 ft | 387 kts | 139° |
| 2026-05-05 04:51 | 46.73096 | -119.66872 | 17661 ft | 386 kts | 139° |
| 2026-05-05 04:51 | 46.71026 | -119.64342 | 16911 ft | 391 kts | 139° |
| 2026-05-05 04:52 | 46.68965 | -119.61839 | 16449 ft | 377 kts | 139° |
| 2026-05-05 04:52 | 46.66983 | -119.59420 | 15967 ft | 366 kts | 139° |
| 2026-05-05 04:52 | 46.65058 | -119.57069 | 15487 ft | 356 kts | 139° |
| 2026-05-05 04:52 | 46.63203 | -119.54803 | 15026 ft | 348 kts | 138° |
| 2026-05-05 04:53 | 46.61368 | -119.52560 | 14572 ft | 341 kts | 138° |
| 2026-05-05 04:53 | 46.59568 | -119.50359 | 14123 ft | 335 kts | 138° |
| 2026-05-05 04:53 | 46.57832 | -119.48155 | 13680 ft | 328 kts | 134° |
| 2026-05-05 04:53 | 46.56332 | -119.45708 | 13239 ft | 320 kts | 126° |
| 2026-05-05 04:54 | 46.54979 | -119.43178 | 12833 ft | 314 kts | 126° |
| 2026-05-05 04:54 | 46.53642 | -119.40703 | 12418 ft | 309 kts | 126° |
| 2026-05-05 04:54 | 46.52297 | -119.38282 | 12012 ft | 306 kts | 127° |
| 2026-05-05 04:54 | 46.50956 | -119.35890 | 11611 ft | 305 kts | 126° |
| 2026-05-05 04:55 | 46.49613 | -119.33505 | 11215 ft | 305 kts | 126° |
| 2026-05-05 04:55 | 46.48270 | -119.31121 | 10804 ft | 305 kts | 126° |
| 2026-05-05 04:55 | 46.46921 | -119.28736 | 10404 ft | 304 kts | 126° |
| 2026-05-05 04:55 | 46.45597 | -119.26398 | 10002 ft | 303 kts | 126° |
| 2026-05-05 04:56 | 46.44259 | -119.24038 | 9594 ft | 302 kts | 126° |
| 2026-05-05 04:56 | 46.42930 | -119.21694 | 9192 ft | 300 kts | 126° |
| 2026-05-05 04:56 | 46.41606 | -119.19368 | 8803 ft | 298 kts | 126° |
| 2026-05-05 04:56 | 46.40295 | -119.17063 | 8417 ft | 296 kts | 126° |
| 2026-05-05 04:57 | 46.38989 | -119.14770 | 8016 ft | 294 kts | 126° |
| 2026-05-05 04:57 | 46.37691 | -119.12494 | 7626 ft | 293 kts | 127° |
| 2026-05-05 04:57 | 46.36398 | -119.10227 | 7238 ft | 291 kts | 127° |
| 2026-05-05 04:57 | 46.35112 | -119.07974 | 6855 ft | 289 kts | 127° |
| 2026-05-05 04:58 | 46.33834 | -119.05736 | 6470 ft | 287 kts | 127° |
| 2026-05-05 04:58 | 46.32576 | -119.03537 | 6089 ft | 285 kts | 127° |
| 2026-05-05 04:58 | 46.31302 | -119.01353 | 5705 ft | 282 kts | 130° |
| 2026-05-05 04:58 | 46.29925 | -118.99449 | 5343 ft | 265 kts | 135° |
| 2026-05-05 04:59 | 46.28617 | -118.97690 | 5008 ft | 251 kts | 134° |
| 2026-05-05 04:59 | 46.27373 | -118.95990 | 4680 ft | 241 kts | 135° |
| 2026-05-05 04:59 | 46.26168 | -118.94360 | 4371 ft | 234 kts | 139° |
| 2026-05-05 04:59 | 46.24786 | -118.93168 | 4069 ft | 230 kts | 159° |
| 2026-05-05 05:00 | 46.23255 | -118.92813 | 3760 ft | 218 kts | 182° |
| 2026-05-05 05:00 | 46.21813 | -118.93246 | 3485 ft | 207 kts | 202° |
| 2026-05-05 05:00 | 46.20628 | -118.94327 | 3247 ft | 196 kts | 223° |
| 2026-05-05 05:00 | 46.19790 | -118.95824 | 3003 ft | 187 kts | 241° |
| 2026-05-05 05:01 | 46.19340 | -118.97509 | 2771 ft | 174 kts | 258° |
| 2026-05-05 05:01 | 46.19248 | -118.99208 | 2504 ft | 167 kts | 275° |
| 2026-05-05 05:01 | 46.19475 | -119.00817 | 2267 ft | 161 kts | 290° |
| 2026-05-05 05:01 | 46.19965 | -119.02215 | 2053 ft | 150 kts | 306° |
| 2026-05-05 05:02 | 46.20624 | -119.03316 | 1881 ft | 141 kts | 316° |
| 2026-05-05 05:02 | 46.21321 | -119.04289 | 1662 ft | 140 kts | 317° |
| 2026-05-05 05:02 | 46.22014 | -119.05241 | 1487 ft | 140 kts | 317° |
| 2026-05-05 05:02 | 46.22712 | -119.06210 | 1304 ft | 139 kts | 316° |
| 2026-05-05 05:03 | 46.23396 | -119.07181 | 1095 ft | 136 kts | 314° |
| 2026-05-05 05:03 | 46.24036 | -119.08155 | 936 ft | 132 kts | 314° |
| 2026-05-05 05:03 | 46.24696 | -119.09085 | 778 ft | 132 kts | 316° |
| 2026-05-05 05:03 | 46.25359 | -119.10022 | 593 ft | 134 kts | 316° |
| 2026-05-05 05:04 | 46.26027 | -119.10961 | 426 ft | 131 kts | 316° |
| 2026-05-05 05:04 | 46.26605 | -119.11754 | 405 ft | 92 kts | 316° |
| 2026-05-05 05:04 | 46.26879 | -119.12141 | 406 ft | 32 kts | 310° |
| 2026-05-05 05:04 | 46.26954 | -119.12318 | 404 ft | 12 kts | 291° |
| 2026-05-05 05:05 | 46.26943 | -119.12398 | 405 ft | 8 kts | 217° |
| 2026-05-05 05:05 | 46.26890 | -119.12376 | 403 ft | 10 kts | 136° |
| 2026-05-05 05:05 | 46.26830 | -119.12291 | 404 ft | 14 kts | 135° |
| 2026-05-05 05:05 | 46.26750 | -119.12180 | 407 ft | 18 kts | 136° |
| 2026-05-05 05:06 | 46.26657 | -119.12048 | 408 ft | 20 kts | 136° |
| 2026-05-05 05:06 | 46.26549 | -119.11897 | 406 ft | 23 kts | 136° |
| 2026-05-05 05:06 | 46.26429 | -119.11729 | 403 ft | 23 kts | 136° |
| 2026-05-05 05:06 | 46.26321 | -119.11577 | 406 ft | 22 kts | 135° |
| 2026-05-05 05:07 | 46.26236 | -119.11459 | 406 ft | 15 kts | 136° |
| 2026-05-05 05:07 | 46.26164 | -119.11421 | 408 ft | 12 kts | 197° |
| 2026-05-05 05:07 | 46.26099 | -119.11405 | 405 ft | 7 kts | 149° |
| 2026-05-05 05:07 | 46.26074 | -119.11405 | 404 ft | 4 kts | 206° |
| 2026-05-05 05:08 | 46.26059 | -119.11430 | 406 ft | 3 kts | 249° |
| 2026-05-05 05:08 | 46.26051 | -119.11450 | 408 ft | 0 kts | 236° |